Time;durP1;ratioP1;P1;durP2;ratioP2;P2;SDS_P1;SDS_P2;PMS_P1;PMS_P2;Temp;Humidity;BMP_temperature;BMP_pressure;BME280_temperature;BME280_humidity;BME280_pressure;Samples;Min_cycle;Max_cycle;Signal;HPM_P1;HPM_P2
2024/01/18 00:01:52;;;;;;;16.25;8.70;;;;;;;0.83;86.22;98183.06;5202521;28;20510;-74
2024/01/18 00:04:22;;;;;;;22.05;9.10;;;;;;;0.83;86.16;98190.78;5208333;28;20221;-72
2024/01/18 00:06:52;;;;;;;20.05;8.55;;;;;;;0.79;86.19;98190.94;5204400;28;20380;-73
2024/01/18 00:09:23;;;;;;;19.40;8.43;;;;;;;0.76;86.56;98202.16;5205981;28;20044;-73
2024/01/18 00:11:53;;;;;;;16.80;8.25;;;;;;;0.75;85.65;98207.34;5200403;28;20029;-72
2024/01/18 00:14:23;;;;;;;23.27;9.02;;;;;;;0.82;86.23;98204.53;5203459;28;20037;-71
2024/01/18 00:16:54;;;;;;;21.95;8.77;;;;;;;0.72;86.01;98203.16;5207706;28;20051;-72
2024/01/18 00:19:24;;;;;;;22.25;9.15;;;;;;;0.76;85.44;98204.72;5203446;28;20040;-75
2024/01/18 00:21:54;;;;;;;19.55;8.80;;;;;;;0.82;85.64;98219.94;5205306;28;20030;-72
2024/01/18 00:24:24;;;;;;;19.13;9.23;;;;;;;0.83;85.73;98229.31;5209016;28;20475;-72
2024/01/18 00:26:55;;;;;;;19.48;9.23;;;;;;;0.72;85.80;98240.88;5208252;28;20362;-72
2024/01/18 00:29:25;;;;;;;21.80;9.40;;;;;;;0.85;86.25;98254.97;5213737;28;20025;-74
2024/01/18 00:31:55;;;;;;;19.42;9.18;;;;;;;0.88;85.12;98258.28;5207246;28;20033;-70
2024/01/18 00:34:26;;;;;;;20.52;9.02;;;;;;;0.81;85.04;98256.81;5206537;28;20060;-73
2024/01/18 00:36:56;;;;;;;20.35;9.73;;;;;;;0.59;85.18;98255.84;5211612;28;20068;-71
2024/01/18 00:39:26;;;;;;;18.52;9.20;;;;;;;0.65;85.11;98247.94;5213353;28;20037;-73
2024/01/18 00:41:56;;;;;;;22.38;9.30;;;;;;;0.71;85.24;98242.59;5208655;28;20035;-71
2024/01/18 00:44:27;;;;;;;22.98;9.88;;;;;;;0.71;85.61;98249.47;5206066;28;20046;-73
2024/01/18 00:46:57;;;;;;;23.88;10.35;;;;;;;0.67;84.86;98251.28;5208911;28;20026;-70
2024/01/18 00:49:27;;;;;;;20.45;9.77;;;;;;;0.78;85.89;98249.22;5208753;28;20271;-73
2024/01/18 00:51:58;;;;;;;21.33;9.15;;;;;;;0.79;85.15;98247.47;5206444;28;20997;-71
2024/01/18 00:54:29;;;;;;;24.02;9.57;;;;;;;0.79;85.57;98253.47;5207131;28;20025;-73
2024/01/18 00:56:59;;;;;;;21.55;10.15;;;;;;;0.86;85.44;98252.34;5208242;28;20165;-72
2024/01/18 00:59:29;;;;;;;19.25;9.18;;;;;;;0.80;84.98;98254.28;5208373;28;20025;-73
2024/01/18 01:01:59;;;;;;;21.58;9.00;;;;;;;0.79;84.95;98261.16;5203138;28;20087;-72
2024/01/18 01:04:30;;;;;;;24.95;9.68;;;;;;;0.72;84.65;98274.28;5205285;28;20181;-73
2024/01/18 01:07:00;;;;;;;19.90;9.93;;;;;;;0.82;84.42;98273.91;5208285;28;20371;-73
2024/01/18 01:09:30;;;;;;;21.90;10.18;;;;;;;0.85;84.33;98284.09;5205872;28;20028;-73
2024/01/18 01:12:00;;;;;;;23.10;9.77;;;;;;;0.81;83.81;98282.50;5207836;28;20040;-74
2024/01/18 01:14:31;;;;;;;23.45;10.07;;;;;;;0.70;84.87;98294.88;5206169;28;20029;-73
2024/01/18 01:17:02;;;;;;;22.30;9.73;;;;;;;0.68;85.58;98288.09;5205802;28;20142;-73
2024/01/18 01:19:32;;;;;;;19.90;9.80;;;;;;;0.69;84.73;98285.47;5203046;28;20518;-73
2024/01/18 01:22:02;;;;;;;19.48;9.73;;;;;;;0.74;85.44;98293.88;5208790;28;20029;-73
2024/01/18 01:24:38;;;;;;;22.42;9.55;;;;;;;0.64;85.64;98295.09;5210468;28;20428;-73
2024/01/18 01:27:08;;;;;;;23.40;10.48;;;;;;;0.72;85.78;98302.53;5210209;28;20080;-73
2024/01/18 01:29:38;;;;;;;21.90;9.77;;;;;;;0.74;85.69;98304.16;5208889;28;20030;-73
2024/01/18 01:32:09;;;;;;;23.88;10.27;;;;;;;0.72;85.55;98305.94;5210343;28;20029;-73
2024/01/18 01:34:39;;;;;;;21.65;8.70;;;;;;;0.80;85.33;98323.66;5206307;28;20398;-73
2024/01/18 01:37:10;;;;;;;22.52;10.30;;;;;;;0.56;85.50;98327.88;5209154;28;20036;-74
2024/01/18 01:39:40;;;;;;;23.52;10.40;;;;;;;0.40;86.24;98334.38;5206305;28;20031;-73
2024/01/18 01:42:10;;;;;;;20.10;9.73;;;;;;;0.52;86.70;98335.75;5208929;28;20522;-73
2024/01/18 01:44:41;;;;;;;20.40;10.10;;;;;;;0.55;86.55;98333.91;5208356;28;20397;-73
2024/01/18 01:47:11;;;;;;;21.55;9.88;;;;;;;0.55;87.26;98339.03;5209892;28;20029;-73
2024/01/18 01:49:42;;;;;;;25.23;10.07;;;;;;;0.69;87.53;98331.72;5208408;28;21397;-73
2024/01/18 01:52:12;;;;;;;21.20;9.90;;;;;;;0.71;85.98;98341.97;5208615;28;20072;-73
2024/01/18 01:54:45;;;;;;;20.58;10.70;;;;;;;0.93;85.98;98346.34;5207199;28;20302;-73
2024/01/18 01:57:17;;;;;;;23.02;9.68;;;;;;;0.98;85.38;98356.47;5208949;28;20024;-73
2024/01/18 01:59:48;;;;;;;22.77;9.93;;;;;;;0.99;85.21;98364.16;5209964;28;20108;-73
2024/01/18 02:02:22;;;;;;;24.00;10.50;;;;;;;1.04;85.41;98367.41;5206789;28;20175;-72
2024/01/18 02:04:53;;;;;;;21.67;10.55;;;;;;;1.03;85.37;98378.56;5206715;28;20025;-72
2024/01/18 02:07:26;;;;;;;21.77;10.43;;;;;;;1.07;85.03;98374.19;5207625;28;20033;-72
2024/01/18 02:09:56;;;;;;;22.45;10.20;;;;;;;0.99;85.44;98373.59;5210566;28;20037;-73
2024/01/18 02:12:27;;;;;;;24.27;9.98;;;;;;;0.99;84.90;98379.56;5205646;28;20032;-72
2024/01/18 02:14:58;;;;;;;24.00;10.25;;;;;;;0.95;84.81;98372.88;5208970;28;20056;-72
2024/01/18 02:17:28;;;;;;;22.70;10.68;;;;;;;0.98;84.33;98369.34;5206694;28;20102;-73
2024/01/18 02:19:59;;;;;;;20.63;10.60;;;;;;;0.90;85.17;98374.72;5207984;28;20088;-74
2024/01/18 02:22:33;;;;;;;22.17;10.25;;;;;;;0.89;85.03;98367.91;5208062;28;20503;-73
2024/01/18 02:25:15;;;;;;;23.98;10.13;;;;;;;0.89;84.64;98367.91;5209585;28;20036;-73
2024/01/18 02:27:46;;;;;;;22.08;10.60;;;;;;;0.96;85.38;98379.69;5208104;28;20052;-74
2024/01/18 02:30:16;;;;;;;24.02;10.85;;;;;;;0.95;85.47;98382.28;5204288;28;20033;-73
2024/01/18 02:32:46;;;;;;;24.52;11.55;;;;;;;0.79;85.31;98371.69;5207171;28;20061;-73
2024/01/18 02:35:17;;;;;;;21.58;11.20;;;;;;;0.71;86.16;98371.06;5207168;28;20108;-73
2024/01/18 02:37:48;;;;;;;23.10;11.10;;;;;;;0.71;87.12;98375.38;5206733;28;20087;-73
2024/01/18 02:40:18;;;;;;;23.13;10.23;;;;;;;0.69;86.66;98380.56;5204982;28;20392;-73
2024/01/18 02:42:49;;;;;;;25.52;10.57;;;;;;;0.81;87.37;98382.75;5204101;28;20029;-72
2024/01/18 02:45:21;;;;;;;21.50;10.23;;;;;;;0.85;87.02;98386.03;5205625;28;20025;-73
2024/01/18 02:47:51;;;;;;;24.75;10.75;;;;;;;0.96;86.48;98374.53;5209768;28;20108;-73
2024/01/18 02:50:21;;;;;;;25.08;11.77;;;;;;;0.97;86.34;98378.78;5204413;28;20454;-73
2024/01/18 02:52:51;;;;;;;25.67;10.88;;;;;;;0.76;86.50;98382.03;5206380;28;20025;-74
2024/01/18 02:55:22;;;;;;;22.40;11.15;;;;;;;0.75;87.05;98388.06;5204651;28;20025;-73
2024/01/18 02:57:53;;;;;;;21.58;11.10;;;;;;;0.93;87.12;98394.34;5208327;28;20470;-74
2024/01/18 03:00:24;;;;;;;26.10;11.10;;;;;;;0.92;86.25;98397.81;5209356;28;20478;-71
2024/01/18 03:02:54;;;;;;;23.77;11.07;;;;;;;0.91;86.46;98391.81;5204639;28;20029;-73
2024/01/18 03:05:24;;;;;;;24.38;11.43;;;;;;;0.97;86.53;98391.66;5207658;28;20024;-73
2024/01/18 03:07:55;;;;;;;24.98;11.82;;;;;;;0.91;85.68;98391.81;5204332;28;20035;-73
2024/01/18 03:10:25;;;;;;;23.17;11.73;;;;;;;0.93;86.36;98397.75;5204534;28;20100;-72
2024/01/18 03:12:56;;;;;;;24.33;11.48;;;;;;;0.79;86.96;98401.66;5206221;28;20409;-72
2024/01/18 03:15:26;;;;;;;24.90;11.48;;;;;;;0.79;87.11;98406.81;5186342;28;20337;-74
2024/01/18 03:17:57;;;;;;;28.67;11.10;;;;;;;0.65;86.64;98412.38;5211055;28;20560;-72
2024/01/18 03:20:27;;;;;;;26.65;10.95;;;;;;;0.71;87.28;98409.59;5204470;28;20025;-73
2024/01/18 03:22:57;;;;;;;30.83;12.68;;;;;;;0.71;87.02;98399.31;5207343;28;20050;-73
2024/01/18 03:25:28;;;;;;;24.02;12.07;;;;;;;0.72;87.63;98395.03;5204547;28;20036;-73
2024/01/18 03:27:58;;;;;;;26.85;11.82;;;;;;;0.69;87.51;98398.53;5206160;28;20025;-74
2024/01/18 03:30:29;;;;;;;26.85;12.55;;;;;;;0.68;86.90;98402.00;5204920;28;20060;-73
2024/01/18 03:32:59;;;;;;;22.98;11.35;;;;;;;0.71;88.08;98394.19;5206946;28;20453;-73
2024/01/18 03:35:29;;;;;;;25.48;12.18;;;;;;;0.51;88.53;98400.81;5204133;28;20033;-73
2024/01/18 03:38:00;;;;;;;23.58;12.73;;;;;;;0.60;87.87;98411.69;5205010;28;20659;-74
2024/01/18 03:40:30;;;;;;;24.58;12.05;;;;;;;0.62;87.80;98417.63;5207975;28;20037;-74
2024/01/18 03:43:00;;;;;;;27.23;12.50;;;;;;;0.61;88.60;98410.81;5207549;28;20123;-73
2024/01/18 03:45:31;;;;;;;23.65;12.27;;;;;;;0.64;88.97;98412.41;5204213;28;20108;-73
2024/01/18 03:48:01;;;;;;;26.88;12.35;;;;;;;0.55;88.66;98412.72;5207910;28;20053;-72
2024/01/18 03:50:32;;;;;;;30.73;13.20;;;;;;;0.44;89.38;98400.19;5205905;28;20494;-73
2024/01/18 03:53:02;;;;;;;30.33;12.90;;;;;;;0.40;89.39;98411.44;5211212;22;20512;-74
2024/01/18 03:55:33;;;;;;;25.55;12.07;;;;;;;0.40;89.79;98410.59;5172531;28;20217;-74
2024/01/18 03:58:04;;;;;;;34.40;13.68;;;;;;;0.55;90.43;98416.09;5175138;28;20026;-73
2024/01/18 04:00:34;;;;;;;24.77;11.85;;;;;;;0.64;89.43;98413.28;5174343;28;20136;-74
2024/01/18 04:03:05;;;;;;;29.88;12.75;;;;;;;0.64;89.16;98418.41;5177410;28;20034;-73
2024/01/18 04:05:36;;;;;;;24.13;11.95;;;;;;;0.53;89.14;98425.59;5171465;28;20556;-74
2024/01/18 04:08:06;;;;;;;25.20;12.25;;;;;;;0.58;89.61;98418.56;5172711;28;20034;-74
2024/01/18 04:10:36;;;;;;;27.67;12.55;;;;;;;0.42;89.45;98427.63;5175260;28;20037;-74
2024/01/18 04:13:06;;;;;;;26.90;12.95;;;;;;;0.30;90.09;98428.00;5175058;28;20153;-74
2024/01/18 04:15:37;;;;;;;26.75;13.35;;;;;;;0.44;90.62;98430.16;5175112;28;20040;-74
2024/01/18 04:18:07;;;;;;;28.15;13.30;;;;;;;0.37;90.59;98434.63;5174098;28;20029;-74
2024/01/18 04:20:37;;;;;;;32.42;13.02;;;;;;;0.42;90.82;98437.91;5174155;28;20494;-74
2024/01/18 04:23:08;;;;;;;24.90;12.25;;;;;;;0.52;90.94;98439.31;5175246;28;20046;-74
2024/01/18 04:25:38;;;;;;;29.55;13.40;;;;;;;0.42;90.26;98444.78;5176053;28;20485;-73
2024/01/18 04:28:08;;;;;;;28.50;13.73;;;;;;;0.29;90.70;98443.44;5176026;28;20072;-73
2024/01/18 04:30:38;;;;;;;26.30;12.73;;;;;;;0.27;91.52;98446.09;5175154;28;20037;-74
2024/01/18 04:33:09;;;;;;;29.08;12.90;;;;;;;0.28;91.93;98450.34;5174847;28;20073;-74
2024/01/18 04:35:39;;;;;;;29.55;12.88;;;;;;;0.21;91.38;98442.84;5175235;28;20108;-74
2024/01/18 04:38:10;;;;;;;25.98;13.35;;;;;;;0.20;92.53;98436.84;5172718;28;20508;-74
2024/01/18 04:40:40;;;;;;;29.88;13.35;;;;;;;0.09;92.96;98451.75;5175198;28;20113;-74
2024/01/18 04:43:10;;;;;;;27.58;13.57;;;;;;;0.20;92.11;98444.56;5173664;28;20243;-74
2024/01/18 04:45:41;;;;;;;27.65;14.00;;;;;;;0.18;92.06;98448.06;5172988;28;20475;-74
2024/01/18 04:48:11;;;;;;;26.90;13.45;;;;;;;0.40;91.49;98444.81;5175569;28;20031;-74
2024/01/18 04:50:41;;;;;;;34.55;13.38;;;;;;;0.40;90.84;98447.38;5176839;28;20030;-74
2024/01/18 04:53:13;;;;;;;31.42;13.70;;;;;;;0.43;91.60;98455.03;5172478;28;20030;-74
2024/01/18 04:55:44;;;;;;;27.60;13.43;;;;;;;0.33;91.55;98453.59;5171488;28;20030;-73
2024/01/18 04:58:14;;;;;;;27.67;14.02;;;;;;;0.26;91.46;98446.13;5175604;28;20075;-74
2024/01/18 05:00:44;;;;;;;27.83;13.68;;;;;;;0.44;91.36;98450.72;5168712;28;20034;-74
2024/01/18 05:03:15;;;;;;;23.50;12.77;;;;;;;0.34;91.79;98450.16;5171163;28;20029;-74
2024/01/18 05:05:45;;;;;;;32.75;13.77;;;;;;;0.28;92.07;98452.91;5173620;28;20045;-74
2024/01/18 05:08:16;;;;;;;26.30;13.07;;;;;;;0.19;92.91;98452.31;5172676;28;20040;-74
2024/01/18 05:10:46;;;;;;;31.58;13.98;;;;;;;0.18;93.49;98453.22;5174207;28;20553;-73
2024/01/18 05:13:16;;;;;;;27.08;13.52;;;;;;;0.24;93.49;98464.13;5171067;28;20038;-74
2024/01/18 05:15:47;;;;;;;30.35;14.10;;;;;;;0.39;92.97;98473.97;5174167;28;20032;-74
2024/01/18 05:18:19;;;;;;;26.80;13.25;;;;;;;0.36;92.12;98481.75;5173610;28;20028;-74
2024/01/18 05:20:49;;;;;;;28.70;14.05;;;;;;;0.34;92.09;98486.09;5173102;28;20072;-74
2024/01/18 05:23:20;;;;;;;23.77;13.52;;;;;;;0.36;92.53;98483.50;5173591;28;20034;-74
2024/01/18 05:25:50;;;;;;;29.45;14.68;;;;;;;0.29;93.06;98487.97;5170636;28;20229;-74
2024/01/18 05:28:20;;;;;;;29.88;14.07;;;;;;;0.33;93.80;98481.84;5173897;28;20369;-74
2024/01/18 05:30:50;;;;;;;33.13;14.40;;;;;;;0.21;93.77;98481.38;5172679;28;20029;-74
2024/01/18 05:33:21;;;;;;;29.90;14.93;;;;;;;0.32;94.16;98482.75;5171203;28;20479;-74
2024/01/18 05:35:52;;;;;;;31.45;14.82;;;;;;;0.23;94.40;98487.28;5171812;28;20030;-73
2024/01/18 05:38:22;;;;;;;27.98;13.90;;;;;;;0.16;94.34;98483.19;5176093;28;20045;-72
2024/01/18 05:40:52;;;;;;;29.33;14.18;;;;;;;0.11;94.04;98488.47;5173545;28;20040;-73
2024/01/18 05:43:23;;;;;;;27.65;13.80;;;;;;;0.32;93.90;98490.44;5172746;28;20025;-72
2024/01/18 05:45:54;;;;;;;34.47;14.73;;;;;;;0.26;93.30;98495.75;5173728;28;20088;-74
2024/01/18 05:48:25;;;;;;;27.25;13.18;;;;;;;0.20;94.18;98495.91;5174192;28;20026;-73
2024/01/18 05:50:55;;;;;;;29.83;14.20;;;;;;;0.16;94.76;98499.47;5173551;28;20383;-74
2024/01/18 05:53:25;;;;;;;25.73;13.93;;;;;;;0.28;95.48;98511.97;5172143;28;20025;-73
2024/01/18 05:55:55;;;;;;;32.03;14.05;;;;;;;0.25;94.94;98524.84;5170567;28;20030;-73
2024/01/18 05:58:26;;;;;;;30.77;14.35;;;;;;;0.53;93.80;98527.53;5172902;28;20075;-73
2024/01/18 06:00:57;;;;;;;26.45;13.40;;;;;;;0.58;92.50;98521.34;5173202;28;20042;-74
2024/01/18 06:03:27;;;;;;;33.58;14.05;;;;;;;0.33;91.92;98522.94;5172057;28;20030;-74
2024/01/18 06:05:58;;;;;;;33.20;13.10;;;;;;;0.45;92.86;98530.31;5172575;28;20052;-74
2024/01/18 06:08:28;;;;;;;27.83;13.88;;;;;;;0.52;92.77;98530.97;5173608;28;20570;-74
2024/01/18 06:10:58;;;;;;;30.75;14.20;;;;;;;0.38;93.03;98522.81;5172054;28;20092;-74
2024/01/18 06:13:29;;;;;;;30.00;14.30;;;;;;;0.35;93.37;98528.03;5170988;28;20116;-74
2024/01/18 06:15:59;;;;;;;29.08;13.82;;;;;;;0.34;94.20;98526.34;5172411;28;20434;-74
2024/01/18 06:18:29;;;;;;;30.38;14.20;;;;;;;0.17;94.22;98534.50;5173775;28;20475;-74
2024/01/18 06:20:59;;;;;;;29.92;14.20;;;;;;;0.26;95.44;98534.28;5174411;28;20330;-74
2024/01/18 06:23:30;;;;;;;29.60;14.75;;;;;;;0.33;95.71;98535.78;5175969;28;20056;-74
2024/01/18 06:26:00;;;;;;;30.70;14.80;;;;;;;0.35;93.89;98543.47;5175112;28;20037;-74
2024/01/18 06:28:30;;;;;;;30.23;14.43;;;;;;;0.38;92.81;98544.19;5174089;28;20038;-74
2024/01/18 06:31:02;;;;;;;29.77;13.88;;;;;;;0.58;93.31;98543.63;5175207;28;20117;-72
2024/01/18 06:33:32;;;;;;;34.47;15.25;;;;;;;0.53;92.58;98548.06;5171210;28;20187;-73
2024/01/18 06:36:03;;;;;;;26.67;13.80;;;;;;;0.44;93.22;98554.31;5171435;28;20036;-74
2024/01/18 06:38:34;;;;;;;27.73;13.93;;;;;;;0.48;94.14;98560.19;5173453;28;20462;-75
2024/01/18 06:41:04;;;;;;;29.30;13.90;;;;;;;0.37;94.20;98564.81;5172285;28;20053;-74
2024/01/18 06:43:35;;;;;;;28.85;14.32;;;;;;;0.31;94.37;98567.50;5170431;28;20026;-74
2024/01/18 06:46:18;;;;;;;29.42;14.48;;;;;;;0.29;95.07;98559.88;5170854;28;20029;-74
2024/01/18 06:48:55;;;;;;;30.73;14.63;;;;;;;0.19;94.93;98575.56;5173759;28;20366;-73
2024/01/18 06:51:25;;;;;;;26.77;12.98;;;;;;;0.30;95.88;98576.97;5173827;28;20502;-74
2024/01/18 06:53:55;;;;;;;28.20;14.00;;;;;;;0.20;96.20;98583.22;5167122;28;20040;-74
2024/01/18 06:56:25;;;;;;;26.85;13.77;;;;;;;0.17;96.63;98585.00;5174278;28;20107;-75
2024/01/18 06:58:56;;;;;;;28.45;14.35;;;;;;;0.26;96.50;98595.91;5175633;28;20580;-74
2024/01/18 07:01:26;;;;;;;32.88;15.40;;;;;;;0.30;95.08;98592.38;5176575;28;20107;-74
2024/01/18 07:03:56;;;;;;;31.58;15.40;;;;;;;0.33;95.62;98601.69;5173866;28;20479;-75
2024/01/18 07:06:26;;;;;;;30.80;14.27;;;;;;;0.35;95.51;98603.34;5173052;28;20033;-74
2024/01/18 07:08:57;;;;;;;35.20;14.80;;;;;;;0.28;95.10;98614.69;5175178;28;20398;-74
2024/01/18 07:11:27;;;;;;;34.97;14.98;;;;;;;0.15;95.11;98618.44;5175119;28;20026;-74
2024/01/18 07:13:57;;;;;;;33.70;16.05;;;;;;;0.06;96.46;98618.66;5177132;28;20040;-74
2024/01/18 07:16:28;;;;;;;30.88;15.52;;;;;;;0.03;96.82;98618.75;5175189;28;20036;-74
2024/01/18 07:18:58;;;;;;;34.00;15.98;;;;;;;0.13;97.87;98619.34;5175217;28;20439;-75
2024/01/18 07:21:28;;;;;;;33.60;15.43;;;;;;;0.21;97.06;98622.59;5176765;28;20089;-74
2024/01/18 07:23:58;;;;;;;31.88;16.02;;;;;;;0.39;96.32;98617.78;5173044;28;20466;-75
2024/01/18 07:26:29;;;;;;;31.30;16.00;;;;;;;0.27;94.90;98628.41;5175572;28;20041;-74
2024/01/18 07:28:59;;;;;;;31.90;15.07;;;;;;;0.23;95.54;98634.47;5175444;28;20037;-74
2024/01/18 07:31:29;;;;;;;35.15;15.15;;;;;;;0.33;95.17;98628.22;5174592;28;20046;-75
2024/01/18 07:34:00;;;;;;;30.63;15.68;;;;;;;0.15;95.10;98626.16;5174359;28;20033;-74
2024/01/18 07:36:30;;;;;;;31.98;15.30;;;;;;;0.04;96.21;98633.25;5172148;28;20046;-74
2024/01/18 07:39:02;;;;;;;32.28;15.52;;;;;;;-0.07;97.31;98636.16;5174150;28;20044;-74
2024/01/18 07:41:32;;;;;;;37.63;15.75;;;;;;;-0.06;99.06;98635.28;5174706;28;20026;-74
2024/01/18 07:44:03;;;;;;;33.15;16.25;;;;;;;-0.02;99.34;98630.84;5174511;28;20060;-74
2024/01/18 07:46:33;;;;;;;29.77;15.63;;;;;;;0.07;99.08;98627.22;5174771;28;20124;-75
2024/01/18 07:49:03;;;;;;;38.92;16.80;;;;;;;0.03;98.89;98634.16;5171080;28;20475;-74
2024/01/18 07:51:33;;;;;;;34.20;16.58;;;;;;;-0.02;98.88;98635.13;5170390;28;20277;-74
2024/01/18 07:54:04;;;;;;;31.05;15.60;;;;;;;0.04;100.00;98640.97;5173791;28;20052;-74
2024/01/18 07:56:35;;;;;;;32.67;15.35;;;;;;;0.06;99.50;98644.34;5176909;28;20443;-75
2024/01/18 07:59:05;;;;;;;31.02;15.93;;;;;;;0.06;100.00;98657.16;5175558;28;20117;-74
2024/01/18 08:01:36;;;;;;;35.92;17.33;;;;;;;0.21;98.86;98658.53;5172623;28;20026;-73
2024/01/18 08:04:06;;;;;;;33.88;16.70;;;;;;;0.24;99.04;98649.00;5173804;28;20449;-74
2024/01/18 08:06:36;;;;;;;32.15;16.60;;;;;;;0.22;98.32;98665.34;5175292;28;20066;-73
2024/01/18 08:09:06;;;;;;;35.42;16.95;;;;;;;0.17;98.54;98667.16;5176718;28;20570;-74
2024/01/18 08:11:37;;;;;;;48.97;19.25;;;;;;;0.31;98.34;98660.81;5174617;28;20033;-73
2024/01/18 08:14:08;;;;;;;71.28;23.75;;;;;;;0.38;97.99;98670.03;5173608;28;20057;-74
2024/01/18 08:16:38;;;;;;;43.90;18.20;;;;;;;0.18;97.63;98674.84;5176558;28;20390;-75
2024/01/18 08:19:08;;;;;;;38.72;17.45;;;;;;;0.26;98.98;98678.09;5173656;28;20034;-73
2024/01/18 08:21:45;;;;;;;42.88;20.00;;;;;;;0.26;98.14;98675.50;5177297;28;20037;-74
2024/01/18 08:24:16;;;;;;;43.90;18.55;;;;;;;0.23;98.84;98673.00;5175491;28;20038;-74
2024/01/18 08:26:46;;;;;;;52.53;22.02;;;;;;;0.46;98.37;98685.25;5174780;28;20400;-74
2024/01/18 08:29:17;;;;;;;40.55;18.92;;;;;;;0.41;97.27;98687.94;5177628;28;20026;-74
2024/01/18 08:31:47;;;;;;;34.90;17.13;;;;;;;0.33;97.42;98700.16;5171665;28;20030;-74
2024/01/18 08:34:17;;;;;;;35.65;17.00;;;;;;;0.39;97.66;98694.84;5173770;28;20048;-74
2024/01/18 08:36:49;;;;;;;32.60;16.13;;;;;;;0.48;97.68;98707.47;5174822;28;20025;-74
2024/01/18 08:39:20;;;;;;;38.63;17.88;;;;;;;0.27;96.62;98699.44;5175825;28;20033;-74
2024/01/18 08:41:50;;;;;;;35.65;17.60;;;;;;;0.31;98.13;98688.22;5175711;28;20026;-75
2024/01/18 08:44:20;;;;;;;34.90;16.88;;;;;;;0.26;98.49;98697.75;5171076;28;20022;-74
2024/01/18 08:46:50;;;;;;;64.82;22.35;;;;;;;0.42;97.95;98705.03;5167913;28;20476;-74
2024/01/18 08:49:24;;;;;;;94.53;29.08;;;;;;;0.40;96.68;98706.81;5176203;28;20021;-74
2024/01/18 08:51:55;;;;;;;55.58;22.95;;;;;;;0.55;96.32;98711.56;5175479;28;20037;-74
2024/01/18 08:54:25;;;;;;;45.38;21.98;;;;;;;0.38;95.33;98713.72;5179138;28;20030;-73
2024/01/18 08:56:56;;;;;;;34.95;18.33;;;;;;;0.34;95.88;98704.41;5176115;28;20109;-74
2024/01/18 08:59:26;;;;;;;35.17;16.90;;;;;;;0.27;95.88;98720.84;5175993;28;20394;-74
2024/01/18 09:01:57;;;;;;;36.65;18.02;;;;;;;0.16;97.57;98732.25;5176823;28;20021;-74
2024/01/18 09:04:27;;;;;;;33.53;16.60;;;;;;;0.14;97.41;98734.88;5178594;28;20457;-74
2024/01/18 09:06:58;;;;;;;31.80;16.77;;;;;;;0.11;98.59;98734.94;5176884;28;20070;-74
2024/01/18 09:09:29;;;;;;;37.03;16.77;;;;;;;0.09;99.43;98739.28;5178757;28;20513;-74
2024/01/18 09:11:59;;;;;;;34.08;17.08;;;;;;;0.16;98.03;98737.38;5174726;28;20597;-75
2024/01/18 09:14:30;;;;;;;31.75;17.17;;;;;;;0.22;98.68;98748.34;5179678;28;20466;-74
2024/01/18 09:17:00;;;;;;;32.35;16.55;;;;;;;0.14;98.84;98752.84;5172716;28;20026;-75
2024/01/18 09:19:30;;;;;;;32.22;16.45;;;;;;;0.04;99.39;98748.78;5178245;28;20037;-74
2024/01/18 09:22:01;;;;;;;36.85;17.70;;;;;;;0.04;99.91;98759.06;5177537;28;20113;-74
2024/01/18 09:24:32;;;;;;;33.50;16.73;;;;;;;0.10;99.25;98764.06;5179114;28;20026;-74
2024/01/18 09:27:02;;;;;;;35.22;16.95;;;;;;;0.01;99.74;98769.41;5175607;28;20030;-74
2024/01/18 09:29:32;;;;;;;37.75;17.15;;;;;;;0.15;99.40;98766.50;5178521;28;20038;-75
2024/01/18 09:32:03;;;;;;;34.03;17.92;;;;;;;0.03;99.13;98762.50;5176713;28;20052;-74
2024/01/18 09:34:34;;;;;;;34.33;17.52;;;;;;;0.03;99.69;98757.38;5176540;28;20065;-75
2024/01/18 09:37:04;;;;;;;35.75;16.85;;;;;;;0.01;99.92;98760.88;5176499;28;20518;-74
2024/01/18 09:39:34;;;;;;;31.50;16.88;;;;;;;0.09;100.00;98769.22;5175556;28;20645;-75
2024/01/18 09:42:12;;;;;;;33.75;17.58;;;;;;;0.04;99.31;98774.44;5171574;28;20037;-73
2024/01/18 09:44:47;;;;;;;33.72;16.95;;;;;;;0.07;99.07;98783.81;5175949;28;20114;-75
2024/01/18 09:47:18;;;;;;;33.08;17.52;;;;;;;0.20;98.78;98796.34;5175060;28;20495;-74
2024/01/18 09:49:50;;;;;;;34.70;17.77;;;;;;;0.10;98.71;98796.56;5176235;28;20038;-75
2024/01/18 09:52:21;;;;;;;37.80;16.80;;;;;;;0.15;99.37;98794.75;5179670;28;20069;-75
2024/01/18 09:54:52;;;;;;;33.00;17.48;;;;;;;0.09;99.70;98797.47;5176709;28;20530;-75
2024/01/18 09:57:32;;;;;;;42.30;19.95;;;;;;;0.46;99.29;98796.56;5176498;28;20026;-74
2024/01/18 10:00:08;;;;;;;37.83;18.77;;;;;;;0.49;98.39;98798.22;5174947;28;20113;-74
2024/01/18 10:02:38;;;;;;;35.42;18.27;;;;;;;0.51;98.08;98807.59;5176454;28;20022;-74
2024/01/18 10:05:11;;;;;;;33.95;18.42;;;;;;;0.73;98.44;98808.72;5174959;28;20587;-75
2024/01/18 10:07:42;;;;;;;34.53;18.30;;;;;;;1.05;97.44;98800.22;5174312;28;20037;-74
2024/01/18 10:10:14;;;;;;;40.35;18.17;;;;;;;1.00;96.33;98797.75;5176390;28;20022;-75
2024/01/18 10:12:47;;;;;;;36.38;17.33;;;;;;;1.16;94.25;98806.75;5174874;28;20026;-75
2024/01/18 10:15:33;;;;;;;35.00;16.63;;;;;;;1.40;93.75;98803.50;5173239;28;20022;-74
2024/01/18 10:18:05;;;;;;;34.42;16.98;;;;;;;1.21;92.29;98817.75;5172343;28;20029;-74
2024/01/18 10:20:36;;;;;;;34.75;17.02;;;;;;;1.23;93.94;98812.59;5176451;28;20406;-74
2024/01/18 10:23:07;;;;;;;36.30;16.88;;;;;;;1.48;93.08;98817.03;5175159;28;20108;-74
2024/01/18 10:25:39;;;;;;;32.78;17.05;;;;;;;1.45;92.93;98817.13;5175985;28;20030;-75
2024/01/18 10:28:10;;;;;;;35.08;17.02;;;;;;;1.58;92.45;98810.72;5173739;28;20041;-75
2024/01/18 10:30:40;;;;;;;33.95;16.58;;;;;;;1.61;93.11;98815.78;5172493;28;20046;-75
2024/01/18 10:33:12;;;;;;;32.45;16.25;;;;;;;1.82;90.20;98817.78;5174366;28;20042;-74
2024/01/18 10:35:44;;;;;;;31.45;15.27;;;;;;;1.91;89.92;98814.91;5174048;28;20478;-74
2024/01/18 10:38:14;;;;;;;35.42;15.75;;;;;;;1.72;89.38;98816.31;5164167;28;20018;-74
2024/01/18 10:40:49;;;;;;;34.22;17.58;;;;;;;1.80;90.49;98827.28;5171510;28;20550;-74
2024/01/18 10:43:20;;;;;;;;;;;;;;;1.81;90.45;98828.97;5175589;28;20021;-73
2024/01/18 10:45:50;;;;;;;30.38;14.52;;;;;;;2.03;90.61;98823.09;5174848;28;19913;-75
2024/01/18 10:48:21;;;;;;;30.15;15.07;;;;;;;1.98;89.00;98837.84;5172036;28;20438;-75
2024/01/18 10:50:53;;;;;;;28.05;15.18;;;;;;;1.82;89.69;98838.38;5173202;28;20021;-73
2024/01/18 10:53:25;;;;;;;30.48;15.05;;;;;;;2.01;90.48;98849.81;5175347;28;20495;-75
2024/01/18 10:55:55;;;;;;;29.65;14.85;;;;;;;2.16;90.42;98857.09;5171389;28;20085;-74
2024/01/18 10:58:25;;;;;;;29.25;14.10;;;;;;;2.12;88.63;98863.19;5184909;28;20472;-74
2024/01/18 11:00:57;;;;;;;27.02;14.38;;;;;;;2.16;89.27;98864.81;5172288;28;20087;-74
2024/01/18 11:03:28;;;;;;;29.67;14.02;;;;;;;2.25;88.40;98851.66;5174552;28;20080;-74
2024/01/18 11:06:00;;;;;;;26.98;13.98;;;;;;;2.31;88.99;98864.38;5171992;28;20084;-74
2024/01/18 11:08:33;;;;;;;31.13;13.98;;;;;;;2.09;88.98;98855.56;5172247;28;20038;-74
2024/01/18 11:11:04;;;;;;;24.77;12.63;;;;;;;2.14;89.08;98853.72;5171889;28;20041;-74
2024/01/18 11:13:35;;;;;;;26.05;13.40;;;;;;;2.13;89.07;98860.59;5176080;28;20033;-73
2024/01/18 11:16:06;;;;;;;26.83;13.07;;;;;;;2.31;89.02;98854.91;5171844;28;20081;-75
2024/01/18 11:18:37;;;;;;;26.75;13.40;;;;;;;2.46;88.86;98853.56;5173120;28;20053;-74
2024/01/18 11:21:08;;;;;;;25.05;13.63;;;;;;;2.26;87.95;98861.06;5172165;28;20456;-75
2024/01/18 11:23:40;;;;;;;27.05;12.93;;;;;;;2.29;88.29;98866.13;5174190;28;20029;-74
2024/01/18 11:26:23;;;;;;;26.40;12.50;;;;;;;2.17;88.77;98864.75;5171071;28;20030;-74
2024/01/18 11:29:24;;;;;;;21.10;11.32;;;;;;;2.27;89.39;98867.91;5171017;28;20079;-75
2024/01/18 11:31:55;;;;;;;23.90;11.35;;;;;;;2.27;88.78;98862.75;5169961;28;20036;-73
2024/01/18 11:34:29;;;;;;;22.90;10.98;;;;;;;2.39;89.11;98864.97;5165321;28;20483;-73
2024/01/18 11:37:16;;;;;;;21.38;10.32;;;;;;;2.18;89.42;98868.19;5174132;28;20018;-74
2024/01/18 11:39:49;;;;;;;23.30;11.43;;;;;;;2.23;90.35;98866.31;5174308;28;20034;-74
2024/01/18 11:42:24;;;;;;;27.17;12.13;;;;;;;2.18;90.11;98869.03;5167065;28;20036;-74
2024/01/18 11:44:56;;;;;;;21.55;11.15;;;;;;;2.24;90.42;98861.13;5165301;28;20100;-75